Alvin, Wisconsin
Current Conditions -  °F | °C
As of 3:35 AM on Thursday 23 Oct 2014 (Local Time) from KEGV Reporting Station
Overcast Overcast  
Wind Chill: 39°   Ceiling: 3600
Heat Index: 42°   Visibility: 10mi
Dew Point: 35°   Wind: 6mph
Humidity: 75%   Direction: 180°S
Pressure: 30.09"   Gusts: NA
Location:  45.9186°N, 88.7601°W
Report Text: KEGV 230835Z AUTO 18005KT 10SM OVC036 06/02 A3009 RMK AO2 T00580017
Loading
Personal Weather Stations






























Interactive Weather Map
Tropical Storm Tracking
New forecast layout! Learn more

10-Day Weather Forecast

Advertisements
Track Severe Weather on mobile